Attleboro Falls, Massachusetts
Current Conditions -  °F | °C
As of 2:15 PM on Thursday 30 Oct 2014 (Local Time) from KSFZ Reporting Station
Few Clouds Few Clouds  
Wind Chill: 13°   Ceiling: Unl
Heat Index: 13°   Visibility: 10mi
Dew Point:   Wind: 7mph
Humidity: 41%   Direction: 310°NW
Pressure: 29.92"   Gusts: NA
Location:  41.97°N, 71.32°W
Report Text: KSFZ 301815Z 31006KT 10SM FEW050 13/00 A2992 RMK AO1
Loading
Personal Weather Stations






























Interactive Weather Map
Tropical Storm Tracking
New forecast layout! Learn more

10-Day Weather Forecast

Advertisements
Track Severe Weather on mobile